createdAt,value
2022-11-22T00:02:01.142Z,0.57
2022-11-22T00:07:09.305Z,0.80
2022-11-22T00:12:16.295Z,0.30
2022-11-22T00:17:23.176Z,0.30
2022-11-22T00:22:32.985Z,0.30
2022-11-22T00:27:40.194Z,0.30
2022-11-22T00:32:47.494Z,0.30
2022-11-22T00:37:54.757Z,1.37
2022-11-22T00:43:02.020Z,0.80
2022-11-22T00:48:09.205Z,0.90
2022-11-22T00:53:18.287Z,0.30
2022-11-22T00:58:25.444Z,0.50
2022-11-22T01:03:33.964Z,0.70
2022-11-22T01:08:42.423Z,0.80
2022-11-22T01:13:49.617Z,0.40
2022-11-22T01:18:56.797Z,0.40
2022-11-22T01:24:04.228Z,0.23
2022-11-22T01:29:11.418Z,0.40
2022-11-22T01:34:19.874Z,0.40
2022-11-22T01:39:27.059Z,0.43
2022-11-22T01:44:35.112Z,0.97
2022-11-22T01:49:45.146Z,0.60
2022-11-22T01:54:59.073Z,0.77
2022-11-22T02:00:09.070Z,0.50
2022-11-22T02:05:20.070Z,0.40
2022-11-22T02:10:29.921Z,0.30
2022-11-22T02:15:37.858Z,0.73
2022-11-22T02:20:45.387Z,0.60
2022-11-22T02:25:54.561Z,1.20
2022-11-22T02:31:02.306Z,0.90
2022-11-22T02:36:12.420Z,0.70
2022-11-22T02:41:19.572Z,0.50
2022-11-22T02:46:26.878Z,0.50
2022-11-22T02:51:34.930Z,0.43
2022-11-22T02:56:42.084Z,0.40
2022-11-22T03:01:50.972Z,0.50
2022-11-22T03:07:00.511Z,0.30
2022-11-22T03:12:07.940Z,0.40
2022-11-22T03:17:15.017Z,0.63
2022-11-22T03:22:22.103Z,0.83
2022-11-22T03:27:29.087Z,0.70
2022-11-22T03:32:36.045Z,0.77
2022-11-22T03:37:43.031Z,0.70
2022-11-22T03:42:50.318Z,0.60
2022-11-22T03:47:58.443Z,1.00
2022-11-22T03:53:05.589Z,0.90
2022-11-22T03:58:12.485Z,0.70
2022-11-22T04:03:19.471Z,0.50
2022-11-22T04:08:26.256Z,0.40
2022-11-22T04:13:34.802Z,1.90
2022-11-22T04:18:41.804Z,0.73
2022-11-22T04:23:50.341Z,1.33
2022-11-22T04:29:09.090Z,0.90
2022-11-22T04:34:05.801Z,0.80
2022-11-22T04:39:13.002Z,0.90
2022-11-22T04:44:21.662Z,1.00
2022-11-22T04:49:29.171Z,0.90
2022-11-22T04:54:36.488Z,0.63
2022-11-22T04:59:43.550Z,0.90
2022-11-22T05:04:51.004Z,0.80
2022-11-22T05:09:58.008Z,0.70
2022-11-22T05:15:05.679Z,0.93
2022-11-22T05:20:13.117Z,2.27
2022-11-22T05:25:24.184Z,1.13
2022-11-22T05:30:28.808Z,1.57
2022-11-22T05:35:36.072Z,1.20
2022-11-22T05:40:43.592Z,1.50
2022-11-22T05:45:50.429Z,1.37
2022-11-22T05:50:58.353Z,1.20
2022-11-22T05:56:07.759Z,1.13
2022-11-22T06:01:17.631Z,1.27
2022-11-22T06:06:24.874Z,1.00
2022-11-22T06:11:32.463Z,0.70
2022-11-22T06:16:39.452Z,0.87
2022-11-22T06:21:46.909Z,0.70
2022-11-22T06:26:53.858Z,1.30
2022-11-22T06:32:03.743Z,1.10
2022-11-22T06:37:09.398Z,1.37
2022-11-22T06:42:16.337Z,1.67
2022-11-22T06:47:23.292Z,1.77
2022-11-22T06:52:30.106Z,1.20
2022-11-22T06:57:37.367Z,1.10
2022-11-22T07:02:44.411Z,1.13
2022-11-22T07:07:51.425Z,0.90
2022-11-22T07:12:58.372Z,1.17
2022-11-22T07:18:05.283Z,1.40
2022-11-22T07:23:13.191Z,1.60
2022-11-22T07:28:20.235Z,1.47
2022-11-22T07:33:27.342Z,1.00
2022-11-22T07:38:34.953Z,1.10
2022-11-22T07:43:43.155Z,1.00
2022-11-22T07:48:50.792Z,0.90
2022-11-22T07:53:58.602Z,1.10
2022-11-22T07:59:05.670Z,1.20
2022-11-22T08:04:12.956Z,1.63
2022-11-22T08:09:19.943Z,2.00
2022-11-22T08:14:26.976Z,0.90
2022-11-22T08:19:35.948Z,0.83
2022-11-22T08:24:42.838Z,1.40
2022-11-22T08:29:49.806Z,2.37
2022-11-22T08:34:56.687Z,1.77
2022-11-22T08:40:03.499Z,1.23
2022-11-22T08:45:10.791Z,1.70
2022-11-22T08:50:19.238Z,2.00
2022-11-22T08:55:26.313Z,1.60
2022-11-22T09:00:33.807Z,1.50
2022-11-22T09:10:49.333Z,2.00
2022-11-22T09:15:56.489Z,1.20
2022-11-22T09:21:06.025Z,1.50
2022-11-22T09:26:16.100Z,0.90
2022-11-22T09:31:24.630Z,0.80
2022-11-22T09:36:31.352Z,1.00
2022-11-22T09:41:41.610Z,0.80
2022-11-22T09:46:51.387Z,3.67
2022-11-22T09:52:01.384Z,6.50
2022-11-22T09:57:11.350Z,2.90
2022-11-22T10:02:19.535Z,2.47
2022-11-22T10:07:29.798Z,2.33
2022-11-22T10:12:40.159Z,1.90
2022-11-22T10:17:50.142Z,1.50
2022-11-22T10:22:59.057Z,2.20
2022-11-22T10:28:08.976Z,2.37
2022-11-22T10:33:18.748Z,2.60
2022-11-22T10:38:27.038Z,1.70
2022-11-22T10:43:36.901Z,0.60
2022-11-22T10:48:46.688Z,1.40
2022-11-22T10:53:58.883Z,0.80
2022-11-22T10:59:05.996Z,1.80
2022-11-22T11:04:15.048Z,1.40
2022-11-22T11:14:37.272Z,1.00
2022-11-22T11:19:47.080Z,0.93
2022-11-22T11:24:55.457Z,0.90
2022-11-22T11:30:05.532Z,0.80
2022-11-22T11:35:14.785Z,0.70
2022-11-22T11:40:24.669Z,1.00
2022-11-22T11:45:33.269Z,0.90
2022-11-22T11:50:40.414Z,0.83
2022-11-22T11:55:47.284Z,0.70
2022-11-22T12:00:54.366Z,0.60
2022-11-22T12:06:04.121Z,0.70
2022-11-22T12:11:14.184Z,0.60
2022-11-22T12:16:24.330Z,0.80
2022-11-22T12:21:34.232Z,0.60
2022-11-22T12:26:41.266Z,0.63
2022-11-22T12:31:52.633Z,0.70
2022-11-22T12:37:04.653Z,0.60
2022-11-22T12:42:22.690Z,0.43
2022-11-22T12:47:28.699Z,0.60
2022-11-22T12:52:38.928Z,0.47
2022-11-22T12:57:56.680Z,0.60
2022-11-22T13:03:07.291Z,0.50
2022-11-22T13:08:17.261Z,0.67
2022-11-22T13:13:27.360Z,0.60
2022-11-22T13:18:38.735Z,0.43
2022-11-22T13:23:48.587Z,0.50
2022-11-22T13:28:59.163Z,0.67
2022-11-22T13:34:08.625Z,0.90
2022-11-22T13:39:19.650Z,0.60
2022-11-22T13:44:29.388Z,0.50
2022-11-22T13:49:43.533Z,0.50
2022-11-22T13:54:52.016Z,0.50
2022-11-22T14:00:03.696Z,0.77
2022-11-22T14:05:14.370Z,0.57
2022-11-22T14:10:26.670Z,0.60
2022-11-22T14:15:37.023Z,0.40
2022-11-22T14:20:47.907Z,0.60
2022-11-22T14:25:57.798Z,0.70
2022-11-22T14:31:08.551Z,0.70
2022-11-22T14:36:17.550Z,0.70
2022-11-22T14:41:28.717Z,0.60
2022-11-22T14:46:54.930Z,0.90
2022-11-22T14:51:51.536Z,0.50
2022-11-22T14:57:04.432Z,0.70
2022-11-22T15:02:14.963Z,0.50
2022-11-22T15:09:29.057Z,0.50
2022-11-22T15:12:37.848Z,0.60
2022-11-22T15:59:47.786Z,0.60
2022-11-22T16:06:06.891Z,0.80
2022-11-22T16:10:09.614Z,0.80
2022-11-22T16:15:19.817Z,0.60
2022-11-22T16:20:29.976Z,0.50
2022-11-22T16:25:39.810Z,0.50
2022-11-22T16:30:48.843Z,0.60
2022-11-22T16:35:57.766Z,0.70
2022-11-22T16:41:06.559Z,0.67
2022-11-22T16:46:18.997Z,0.80
2022-11-22T16:51:31.280Z,1.37
2022-11-22T16:56:41.688Z,1.30
2022-11-22T17:01:54.698Z,1.10
2022-11-22T17:07:10.899Z,1.20
2022-11-22T17:12:20.962Z,1.30
2022-11-22T17:17:28.019Z,1.30
2022-11-22T17:22:35.139Z,1.37
2022-11-22T17:27:42.766Z,1.20
2022-11-22T17:32:49.968Z,0.90
2022-11-22T17:38:02.492Z,0.83
2022-11-22T17:43:12.129Z,0.90
2022-11-22T17:48:21.619Z,1.30
2022-11-22T17:53:32.724Z,0.90
2022-11-22T17:58:41.300Z,1.07
2022-11-22T18:03:53.220Z,1.20
2022-11-22T18:09:01.573Z,1.60
2022-11-22T18:14:09.683Z,1.70
2022-11-22T18:19:22.279Z,1.50
2022-11-22T18:24:29.785Z,3.70
2022-11-22T18:29:44.062Z,4.93
2022-11-22T18:34:47.245Z,2.90
2022-11-22T18:39:55.551Z,1.80
2022-11-22T18:45:03.413Z,2.00
2022-11-22T18:50:12.419Z,3.77
2022-11-22T18:55:20.244Z,1.80
2022-11-22T19:00:27.242Z,2.70
2022-11-22T19:05:35.497Z,2.70
2022-11-22T19:10:44.470Z,3.90
2022-11-22T19:15:52.066Z,4.73
2022-11-22T19:20:59.174Z,7.50
2022-11-22T19:26:10.190Z,5.80
2022-11-22T19:31:21.254Z,3.77
2022-11-22T19:36:34.538Z,3.57
2022-11-22T19:41:43.930Z,2.70
2022-11-22T19:46:52.625Z,2.30
2022-11-22T19:51:59.677Z,1.90
2022-11-22T19:57:06.757Z,1.90
2022-11-22T20:02:13.837Z,2.37
2022-11-22T20:07:20.743Z,3.53
2022-11-22T20:12:27.747Z,3.20
2022-11-22T20:17:36.550Z,2.27
2022-11-22T20:22:43.398Z,1.90
2022-11-22T20:27:50.234Z,2.40
2022-11-22T20:32:57.147Z,2.67
2022-11-22T20:38:04.188Z,2.40
2022-11-22T20:43:11.031Z,2.07
2022-11-22T20:48:18.749Z,1.93
2022-11-22T20:53:25.664Z,3.43
2022-11-22T20:58:32.971Z,1.97
2022-11-22T21:03:40.203Z,3.30
2022-11-22T21:08:47.823Z,2.40
2022-11-22T21:13:56.361Z,1.60
2022-11-22T21:19:05.333Z,1.60
2022-11-22T21:24:14.232Z,1.00
2022-11-22T21:29:21.193Z,0.80
2022-11-22T21:34:28.166Z,0.90
2022-11-22T21:39:35.280Z,0.67
2022-11-22T21:44:42.321Z,0.80
2022-11-22T21:49:51.457Z,0.60
2022-11-22T21:54:58.359Z,0.60
2022-11-22T22:00:07.080Z,0.50
2022-11-22T22:05:16.579Z,0.57
2022-11-22T22:10:23.474Z,0.60
2022-11-22T22:15:30.539Z,0.53
2022-11-22T22:20:37.472Z,0.57
2022-11-22T22:25:44.367Z,0.80
2022-11-22T22:30:52.103Z,0.57
2022-11-22T22:36:00.097Z,0.50
2022-11-22T22:41:08.242Z,0.50
2022-11-22T22:46:18.088Z,0.60
2022-11-22T22:51:32.719Z,0.53
2022-11-22T22:56:36.257Z,0.70
2022-11-22T23:01:43.666Z,0.70
2022-11-22T23:06:50.624Z,0.53
2022-11-22T23:11:59.302Z,0.80
2022-11-22T23:17:18.255Z,0.80
2022-11-22T23:22:26.167Z,0.67
2022-11-22T23:27:33.274Z,0.70
2022-11-22T23:32:40.398Z,0.67
2022-11-22T23:37:47.270Z,0.70
2022-11-22T23:42:54.167Z,0.80
2022-11-22T23:48:01.375Z,0.90
2022-11-22T23:53:09.679Z,0.60
2022-11-22T23:58:16.595Z,0.70
